createdAt,value
2017-12-30T00:01:34.188Z,94.24
2017-12-30T00:07:05.232Z,93.73
2017-12-30T00:09:47.096Z,93.33
2017-12-30T00:12:19.760Z,93.54
2017-12-30T00:14:51.803Z,93.23
2017-12-30T00:22:41.632Z,93.09
2017-12-30T00:28:24.313Z,92.77
2017-12-30T00:30:59.413Z,92.37
2017-12-30T00:34:16.517Z,92.30
2017-12-30T00:36:45.448Z,91.97
2017-12-30T00:39:14.188Z,91.31
2017-12-30T00:41:58.952Z,91.22
2017-12-30T00:44:27.831Z,91.17
2017-12-30T00:46:56.049Z,91.31
2017-12-30T00:49:23.854Z,90.92
2017-12-30T00:51:51.983Z,91.07
2017-12-30T00:54:20.439Z,91.20
2017-12-30T00:56:50.566Z,91.13
2017-12-30T00:59:18.418Z,90.83
2017-12-30T01:01:49.310Z,90.51
2017-12-30T01:04:17.692Z,90.30
2017-12-30T01:06:45.982Z,90.03
2017-12-30T01:09:14.830Z,89.86
2017-12-30T01:11:43.775Z,89.64
2017-12-30T01:14:11.891Z,89.39
2017-12-30T01:16:39.807Z,89.47
2017-12-30T01:19:07.661Z,89.47
2017-12-30T01:21:35.844Z,89.63
2017-12-30T01:24:03.595Z,89.61
2017-12-30T01:26:31.372Z,89.26
2017-12-30T01:28:59.352Z,89.40
2017-12-30T01:31:27.092Z,89.33
2017-12-30T01:33:56.091Z,89.55
2017-12-30T01:36:25.075Z,89.63
2017-12-30T01:38:53.119Z,89.42
2017-12-30T01:41:21.206Z,89.67
2017-12-30T01:43:49.281Z,89.71
2017-12-30T01:46:17.978Z,89.84
2017-12-30T01:48:57.411Z,89.75
2017-12-30T01:51:25.116Z,89.87
2017-12-30T01:53:53.718Z,89.93
2017-12-30T01:56:21.583Z,90.02
2017-12-30T01:58:49.684Z,90.16
2017-12-30T02:01:17.325Z,89.94
2017-12-30T02:03:45.046Z,90.13
2017-12-30T02:06:13.881Z,90.06
2017-12-30T02:08:41.987Z,90.11
2017-12-30T02:11:09.772Z,90.21
2017-12-30T02:13:37.873Z,90.18
2017-12-30T02:16:05.656Z,90.05
2017-12-30T02:18:33.408Z,89.85
2017-12-30T02:21:02.628Z,89.67
2017-12-30T02:23:30.442Z,89.55
2017-12-30T02:25:58.473Z,89.64
2017-12-30T02:28:26.293Z,89.98
2017-12-30T02:30:54.106Z,89.78
2017-12-30T02:33:22.304Z,90.04
2017-12-30T02:35:50.099Z,89.65
2017-12-30T02:38:17.832Z,89.94
2017-12-30T02:40:45.786Z,89.94
2017-12-30T02:43:15.091Z,90.17
2017-12-30T02:45:42.899Z,90.60
2017-12-30T02:48:14.441Z,90.62
2017-12-30T02:50:42.490Z,90.76
2017-12-30T02:53:11.144Z,90.77
2017-12-30T02:55:39.581Z,91.23
2017-12-30T02:58:07.329Z,91.53
2017-12-30T03:00:35.173Z,91.42
2017-12-30T03:03:05.265Z,91.50
2017-12-30T03:05:34.232Z,91.61
2017-12-30T03:08:03.905Z,91.65
2017-12-30T03:10:34.565Z,91.84
2017-12-30T03:13:02.376Z,91.79
2017-12-30T03:15:30.157Z,91.50
2017-12-30T03:17:57.965Z,91.57
2017-12-30T03:20:25.757Z,91.37
2017-12-30T03:22:59.535Z,91.25
2017-12-30T03:25:29.936Z,91.07
2017-12-30T03:27:59.977Z,91.05
2017-12-30T03:30:28.980Z,90.96
2017-12-30T03:32:57.494Z,90.79
2017-12-30T03:35:26.307Z,90.38
2017-12-30T03:37:54.230Z,90.23
2017-12-30T03:40:24.238Z,89.89
2017-12-30T03:43:09.578Z,89.63
2017-12-30T03:45:42.748Z,89.83
2017-12-30T03:48:16.192Z,89.57
2017-12-30T03:50:45.457Z,89.59
2017-12-30T03:53:14.357Z,89.48
2017-12-30T03:55:48.367Z,89.56
2017-12-30T03:58:20.894Z,89.34
2017-12-30T04:01:11.576Z,89.27
2017-12-30T04:03:42.002Z,89.01
2017-12-30T04:06:11.367Z,88.99
2017-12-30T04:08:41.510Z,88.81
2017-12-30T04:11:11.656Z,88.81
2017-12-30T04:13:43.982Z,88.56
2017-12-30T04:16:16.178Z,88.18
2017-12-30T04:18:49.363Z,87.97
2017-12-30T04:21:22.973Z,88.24
2017-12-30T04:23:53.537Z,87.87
2017-12-30T04:26:28.555Z,87.64
2017-12-30T04:29:03.954Z,87.56
2017-12-30T04:31:33.343Z,87.47
2017-12-30T04:34:02.995Z,87.45
2017-12-30T04:36:31.877Z,87.75
2017-12-30T04:38:59.728Z,87.45
2017-12-30T04:41:27.668Z,87.05
2017-12-30T04:43:57.679Z,87.04
2017-12-30T04:46:27.148Z,87.33
2017-12-30T04:48:56.857Z,87.15
2017-12-30T04:51:24.638Z,87.03
2017-12-30T04:53:52.427Z,87.30
2017-12-30T04:56:20.184Z,87.08
2017-12-30T04:58:51.767Z,87.07
2017-12-30T05:01:25.229Z,87.34
2017-12-30T05:03:59.349Z,87.29
2017-12-30T05:06:31.036Z,87.21
2017-12-30T05:09:00.557Z,86.75
2017-12-30T07:43:55.480Z,89.88
2017-12-30T07:46:24.995Z,89.94
2017-12-30T07:49:05.672Z,90.01
2017-12-30T07:51:38.223Z,90.03
2017-12-30T07:54:21.404Z,90.26
2017-12-30T07:56:54.106Z,90.37
2017-12-30T07:59:28.607Z,90.26
2017-12-30T08:02:08.812Z,90.49
2017-12-30T08:04:39.772Z,90.65
2017-12-30T08:07:11.930Z,90.64
2017-12-30T08:09:47.825Z,90.74
2017-12-30T08:12:16.610Z,90.78
2017-12-30T08:14:48.975Z,90.91
2017-12-30T08:17:17.660Z,91.09
2017-12-30T08:19:45.851Z,91.18
2017-12-30T08:22:14.698Z,90.95
2017-12-30T08:27:24.595Z,90.54
2017-12-30T08:29:53.470Z,90.80
2017-12-30T08:32:22.438Z,90.74
2017-12-30T08:34:50.174Z,90.75
2017-12-30T08:37:17.980Z,90.90
2017-12-30T08:39:45.741Z,91.12
2017-12-30T08:42:13.483Z,90.91
2017-12-30T08:44:41.134Z,90.71
2017-12-30T08:47:08.933Z,90.55
2017-12-30T08:49:36.712Z,90.89
2017-12-30T08:52:07.435Z,90.85
2017-12-30T08:54:35.130Z,90.94
2017-12-30T08:57:03.061Z,90.98
2017-12-30T08:59:30.963Z,91.13
2017-12-30T09:02:00.370Z,91.33
2017-12-30T09:04:28.124Z,91.34
2017-12-30T09:06:56.283Z,91.29
2017-12-30T09:09:24.777Z,91.55
2017-12-30T09:11:55.063Z,91.73
2017-12-30T09:14:22.934Z,91.89
2017-12-30T09:16:53.008Z,91.89
2017-12-30T14:36:16.011Z,86.73
2017-12-30T14:38:51.850Z,85.80
2017-12-30T14:41:19.661Z,86.00
2017-12-30T14:43:48.209Z,84.76
2017-12-30T14:46:16.347Z,84.12
2017-12-30T14:48:52.746Z,84.37
2017-12-30T14:51:24.368Z,83.59
2017-12-30T14:53:59.184Z,82.85
2017-12-30T14:56:28.327Z,82.17
2017-12-30T14:58:56.070Z,82.34
2017-12-30T15:01:23.816Z,83.03
2017-12-30T15:03:52.438Z,83.30
2017-12-30T15:06:20.818Z,83.53
2017-12-30T15:08:49.058Z,83.94
2017-12-30T15:11:19.000Z,84.58
2017-12-30T15:13:46.700Z,83.92
2017-12-30T15:16:14.513Z,83.82
2017-12-30T15:18:42.668Z,83.75
2017-12-30T15:21:10.829Z,83.99
2017-12-30T15:23:38.674Z,84.72
2017-12-30T15:26:06.342Z,85.32
2017-12-30T15:28:34.008Z,85.64
2017-12-30T15:31:02.078Z,84.80
2017-12-30T15:33:29.770Z,83.59
2017-12-30T15:35:57.818Z,83.59
2017-12-30T15:38:26.040Z,83.78
2017-12-30T15:40:55.695Z,84.47
2017-12-30T15:43:23.520Z,84.97
2017-12-30T15:45:51.177Z,84.40
2017-12-30T15:48:18.858Z,84.76
2017-12-30T15:50:46.486Z,85.28
2017-12-30T15:53:14.212Z,85.43
2017-12-30T15:55:41.880Z,85.88
2017-12-30T15:58:09.576Z,86.23
2017-12-30T16:00:37.472Z,86.23
2017-12-30T16:03:15.150Z,86.99
2017-12-30T16:05:44.282Z,88.15
2017-12-30T16:08:12.707Z,88.78
2017-12-30T16:10:51.674Z,89.05
2017-12-30T16:13:23.490Z,89.15
2017-12-30T16:15:55.013Z,89.00
2017-12-30T16:18:23.210Z,88.56
2017-12-30T16:20:57.629Z,88.14
2017-12-30T16:29:39.538Z,88.35
2017-12-30T16:40:13.092Z,88.48
2017-12-30T16:42:56.406Z,88.65
2017-12-30T16:45:56.122Z,88.79
2017-12-30T19:44:06.249Z,84.49
2017-12-30T19:46:38.153Z,84.38
2017-12-30T19:49:07.171Z,83.55
2017-12-30T19:51:41.649Z,83.50
2017-12-30T19:54:14.605Z,83.85
2017-12-30T19:56:46.000Z,84.12
2017-12-30T19:59:15.782Z,83.82
2017-12-30T20:01:47.881Z,83.86
2017-12-30T20:04:19.547Z,83.57
2017-12-30T20:06:48.585Z,83.45
2017-12-30T20:11:51.657Z,82.73
2017-12-30T20:14:19.979Z,82.17
2017-12-30T20:16:48.956Z,82.21
2017-12-30T20:19:16.882Z,82.26
2017-12-30T20:21:45.871Z,82.31
2017-12-30T20:24:14.825Z,82.33
2017-12-30T21:07:12.125Z,84.19
2017-12-30T21:09:44.473Z,84.17
2017-12-30T21:18:05.030Z,82.64
2017-12-30T21:23:27.226Z,82.00
2017-12-30T21:25:58.417Z,81.38
2017-12-30T21:28:27.772Z,80.84
2017-12-30T21:34:08.802Z,80.63
2017-12-30T21:42:24.631Z,79.54
2017-12-30T22:06:02.922Z,80.88
2017-12-30T22:11:12.602Z,81.21
2017-12-30T22:13:45.089Z,80.94
2017-12-30T22:16:17.904Z,81.30
2017-12-30T22:21:20.969Z,81.48
2017-12-30T22:26:26.540Z,82.15
2017-12-30T22:29:07.061Z,82.65
2017-12-30T22:31:39.536Z,82.67
2017-12-30T22:34:09.909Z,82.61
2017-12-30T22:36:47.896Z,82.54
2017-12-30T22:39:19.239Z,82.65
2017-12-30T22:41:50.506Z,82.90
2017-12-30T22:44:20.035Z,82.83
2017-12-30T22:46:55.680Z,82.83
2017-12-30T22:49:30.379Z,82.67
